sensor_id;sensor_type;location;lat;lon;timestamp;temperature;humidity
35633;DHT22;21754;48.216;-1.628;2022-09-03T00:02:25;22.80;99.90
35633;DHT22;21754;48.216;-1.628;2022-09-03T00:13:41;22.80;99.90
35633;DHT22;21754;48.216;-1.628;2022-09-03T00:16:11;22.80;99.90
35633;DHT22;21754;48.216;-1.628;2022-09-03T00:18:54;22.90;99.90
35633;DHT22;21754;48.216;-1.628;2022-09-03T00:21:44;22.90;99.90
35633;DHT22;21754;48.216;-1.628;2022-09-03T00:24:13;22.90;99.90
35633;DHT22;21754;48.216;-1.628;2022-09-03T00:26:44;22.90;99.90
35633;DHT22;21754;48.216;-1.628;2022-09-03T00:29:20;22.90;99.90
35633;DHT22;21754;48.216;-1.628;2022-09-03T00:31:52;22.90;99.90
35633;DHT22;21754;48.216;-1.628;2022-09-03T00:34:42;22.90;99.90
35633;DHT22;21754;48.216;-1.628;2022-09-03T00:37:10;22.90;99.90
35633;DHT22;21754;48.216;-1.628;2022-09-03T00:39:36;22.90;99.90
35633;DHT22;21754;48.216;-1.628;2022-09-03T00:58:13;23.00;99.90
35633;DHT22;21754;48.216;-1.628;2022-09-03T01:00:42;23.00;99.90
35633;DHT22;21754;48.216;-1.628;2022-09-03T01:14:33;23.00;99.90
35633;DHT22;21754;48.216;-1.628;2022-09-03T01:30:41;23.00;99.90
35633;DHT22;21754;48.216;-1.628;2022-09-03T01:38:55;23.00;99.90
35633;DHT22;21754;48.216;-1.628;2022-09-03T01:47:55;22.90;99.90
35633;DHT22;21754;48.216;-1.628;2022-09-03T01:58:41;22.80;99.90
35633;DHT22;21754;48.216;-1.628;2022-09-03T02:01:32;22.70;99.90
35633;DHT22;21754;48.216;-1.628;2022-09-03T02:03:59;22.70;99.90
35633;DHT22;21754;48.216;-1.628;2022-09-03T02:06:26;22.60;99.90
35633;DHT22;21754;48.216;-1.628;2022-09-03T02:08:52;22.60;99.90
35633;DHT22;21754;48.216;-1.628;2022-09-03T02:11:18;22.60;99.90
35633;DHT22;21754;48.216;-1.628;2022-09-03T02:13:46;22.60;99.90
35633;DHT22;21754;48.216;-1.628;2022-09-03T02:16:20;22.70;99.90
35633;DHT22;21754;48.216;-1.628;2022-09-03T02:18:52;22.60;99.90
35633;DHT22;21754;48.216;-1.628;2022-09-03T02:21:21;22.60;99.90
35633;DHT22;21754;48.216;-1.628;2022-09-03T02:23:49;22.60;99.90
35633;DHT22;21754;48.216;-1.628;2022-09-03T02:31:09;22.60;99.90
35633;DHT22;21754;48.216;-1.628;2022-09-03T02:33:41;22.40;99.90
35633;DHT22;21754;48.216;-1.628;2022-09-03T02:36:09;22.40;99.90
35633;DHT22;21754;48.216;-1.628;2022-09-03T02:38:36;22.30;99.90
35633;DHT22;21754;48.216;-1.628;2022-09-03T02:41:02;22.30;99.90
35633;DHT22;21754;48.216;-1.628;2022-09-03T02:46:07;22.20;99.90
35633;DHT22;21754;48.216;-1.628;2022-09-03T02:48:34;22.20;99.90
35633;DHT22;21754;48.216;-1.628;2022-09-03T02:51:00;22.20;99.90
35633;DHT22;21754;48.216;-1.628;2022-09-03T02:53:26;22.20;99.90
35633;DHT22;21754;48.216;-1.628;2022-09-03T02:55:59;22.30;99.90
35633;DHT22;21754;48.216;-1.628;2022-09-03T02:58:26;22.30;99.90
35633;DHT22;21754;48.216;-1.628;2022-09-03T03:00:52;22.30;99.90
35633;DHT22;21754;48.216;-1.628;2022-09-03T03:03:18;22.40;99.90
35633;DHT22;21754;48.216;-1.628;2022-09-03T03:05:48;22.40;99.90
35633;DHT22;21754;48.216;-1.628;2022-09-03T03:08:18;22.40;99.90
35633;DHT22;21754;48.216;-1.628;2022-09-03T03:10:46;22.50;99.90
35633;DHT22;21754;48.216;-1.628;2022-09-03T03:13:12;22.50;99.90
35633;DHT22;21754;48.216;-1.628;2022-09-03T03:15:38;22.40;99.90
35633;DHT22;21754;48.216;-1.628;2022-09-03T03:18:04;22.40;99.90
35633;DHT22;21754;48.216;-1.628;2022-09-03T03:20:30;22.50;99.90
35633;DHT22;21754;48.216;-1.628;2022-09-03T03:22:56;22.50;99.90
35633;DHT22;21754;48.216;-1.628;2022-09-03T03:25:21;22.50;99.90
35633;DHT22;21754;48.216;-1.628;2022-09-03T03:27:47;22.50;99.90
35633;DHT22;21754;48.216;-1.628;2022-09-03T03:30:13;22.50;99.90
35633;DHT22;21754;48.216;-1.628;2022-09-03T03:32:39;22.50;99.90
35633;DHT22;21754;48.216;-1.628;2022-09-03T03:35:05;22.50;99.90
35633;DHT22;21754;48.216;-1.628;2022-09-03T03:37:32;22.60;99.90
35633;DHT22;21754;48.216;-1.628;2022-09-03T03:39:58;22.60;99.90
35633;DHT22;21754;48.216;-1.628;2022-09-03T03:42:24;22.50;99.90
35633;DHT22;21754;48.216;-1.628;2022-09-03T03:44:49;22.50;99.90
35633;DHT22;21754;48.216;-1.628;2022-09-03T03:47:15;22.40;99.90
35633;DHT22;21754;48.216;-1.628;2022-09-03T03:49:44;22.30;99.90
35633;DHT22;21754;48.216;-1.628;2022-09-03T03:52:09;22.30;99.90
35633;DHT22;21754;48.216;-1.628;2022-09-03T03:54:35;22.40;99.90
35633;DHT22;21754;48.216;-1.628;2022-09-03T03:57:01;22.40;99.90
35633;DHT22;21754;48.216;-1.628;2022-09-03T03:59:27;22.40;99.90
35633;DHT22;21754;48.216;-1.628;2022-09-03T04:01:56;22.40;99.90
35633;DHT22;21754;48.216;-1.628;2022-09-03T04:04:21;22.40;99.90
35633;DHT22;21754;48.216;-1.628;2022-09-03T04:06:47;22.50;99.90
35633;DHT22;21754;48.216;-1.628;2022-09-03T04:09:12;22.50;99.90
35633;DHT22;21754;48.216;-1.628;2022-09-03T04:11:38;22.50;99.90
35633;DHT22;21754;48.216;-1.628;2022-09-03T04:14:04;22.50;99.90
35633;DHT22;21754;48.216;-1.628;2022-09-03T04:16:30;22.50;99.90
35633;DHT22;21754;48.216;-1.628;2022-09-03T04:18:57;22.40;99.90
35633;DHT22;21754;48.216;-1.628;2022-09-03T04:21:25;22.30;99.90
35633;DHT22;21754;48.216;-1.628;2022-09-03T04:23:52;22.20;99.90
35633;DHT22;21754;48.216;-1.628;2022-09-03T04:26:25;22.20;99.90
35633;DHT22;21754;48.216;-1.628;2022-09-03T04:28:51;22.20;99.90
35633;DHT22;21754;48.216;-1.628;2022-09-03T04:31:19;22.10;99.90
35633;DHT22;21754;48.216;-1.628;2022-09-03T04:36:15;22.10;99.90
35633;DHT22;21754;48.216;-1.628;2022-09-03T06:09:29;22.10;99.90
35633;DHT22;21754;48.216;-1.628;2022-09-03T06:11:54;21.50;99.90
35633;DHT22;21754;48.216;-1.628;2022-09-03T06:14:20;21.50;99.90
35633;DHT22;21754;48.216;-1.628;2022-09-03T06:16:47;21.50;99.90
35633;DHT22;21754;48.216;-1.628;2022-09-03T06:19:14;21.50;99.90
35633;DHT22;21754;48.216;-1.628;2022-09-03T06:21:41;21.50;99.90
35633;DHT22;21754;48.216;-1.628;2022-09-03T06:24:12;21.40;99.90
35633;DHT22;21754;48.216;-1.628;2022-09-03T06:26:38;21.40;99.90
35633;DHT22;21754;48.216;-1.628;2022-09-03T08:51:49;21.40;99.90
35633;DHT22;21754;48.216;-1.628;2022-09-03T08:54:15;23.40;99.90
35633;DHT22;21754;48.216;-1.628;2022-09-03T08:56:42;23.40;99.90
35633;DHT22;21754;48.216;-1.628;2022-09-03T08:59:09;23.40;99.90
35633;DHT22;21754;48.216;-1.628;2022-09-03T09:01:58;23.50;99.90
35633;DHT22;21754;48.216;-1.628;2022-09-03T09:04:52;23.70;99.90
35633;DHT22;21754;48.216;-1.628;2022-09-03T09:10:21;23.60;99.90
35633;DHT22;21754;48.216;-1.628;2022-09-03T09:15:31;23.70;99.90
35633;DHT22;21754;48.216;-1.628;2022-09-03T09:20:47;23.80;99.90
35633;DHT22;21754;48.216;-1.628;2022-09-03T09:23:19;24.00;99.90
35633;DHT22;21754;48.216;-1.628;2022-09-03T09:25:50;24.10;99.90
35633;DHT22;21754;48.216;-1.628;2022-09-03T09:28:21;24.10;99.90
35633;DHT22;21754;48.216;-1.628;2022-09-03T09:30:49;23.80;99.90
35633;DHT22;21754;48.216;-1.628;2022-09-03T09:33:16;24.10;99.90
35633;DHT22;21754;48.216;-1.628;2022-09-03T09:35:43;24.20;99.90
35633;DHT22;21754;48.216;-1.628;2022-09-03T09:38:10;24.20;99.90
35633;DHT22;21754;48.216;-1.628;2022-09-03T09:40:42;24.30;99.90
35633;DHT22;21754;48.216;-1.628;2022-09-03T09:45:50;24.30;99.90
35633;DHT22;21754;48.216;-1.628;2022-09-03T09:48:25;24.40;99.90
35633;DHT22;21754;48.216;-1.628;2022-09-03T09:51:19;24.50;99.90
35633;DHT22;21754;48.216;-1.628;2022-09-03T09:53:45;24.30;99.90
35633;DHT22;21754;48.216;-1.628;2022-09-03T09:56:22;24.30;99.90
35633;DHT22;21754;48.216;-1.628;2022-09-03T09:58:48;24.30;99.90
35633;DHT22;21754;48.216;-1.628;2022-09-03T10:01:22;24.20;99.90
35633;DHT22;21754;48.216;-1.628;2022-09-03T10:03:55;24.20;99.90
35633;DHT22;21754;48.216;-1.628;2022-09-03T10:06:29;24.30;99.90
35633;DHT22;21754;48.216;-1.628;2022-09-03T10:09:17;24.30;99.90
35633;DHT22;21754;48.216;-1.628;2022-09-03T10:11:46;24.50;99.90
35633;DHT22;21754;48.216;-1.628;2022-09-03T10:14:25;24.60;99.90
35633;DHT22;21754;48.216;-1.628;2022-09-03T10:17:10;24.60;99.90
35633;DHT22;21754;48.216;-1.628;2022-09-03T10:22:40;24.70;99.90
35633;DHT22;21754;48.216;-1.628;2022-09-03T10:25:11;24.70;99.90
35633;DHT22;21754;48.216;-1.628;2022-09-03T10:27:38;24.80;99.90
35633;DHT22;21754;48.216;-1.628;2022-09-03T10:30:04;24.80;99.90
35633;DHT22;21754;48.216;-1.628;2022-09-03T10:35:31;24.70;99.90
35633;DHT22;21754;48.216;-1.628;2022-09-03T10:46:22;24.70;99.90
35633;DHT22;21754;48.216;-1.628;2022-09-03T10:51:25;24.70;99.90
35633;DHT22;21754;48.216;-1.628;2022-09-03T10:56:42;24.70;99.90
35633;DHT22;21754;48.216;-1.628;2022-09-03T10:59:47;24.70;99.90
35633;DHT22;21754;48.216;-1.628;2022-09-03T11:05:12;24.80;99.90
35633;DHT22;21754;48.216;-1.628;2022-09-03T11:07:50;24.90;99.90
35633;DHT22;21754;48.216;-1.628;2022-09-03T11:10:21;25.00;99.90
35633;DHT22;21754;48.216;-1.628;2022-09-03T11:22:53;25.00;99.90
35633;DHT22;21754;48.216;-1.628;2022-09-03T11:25:21;25.10;99.90
35633;DHT22;21754;48.216;-1.628;2022-09-03T11:33:09;24.90;99.90
35633;DHT22;21754;48.216;-1.628;2022-09-03T11:41:03;24.60;99.90
35633;DHT22;21754;48.216;-1.628;2022-09-03T11:43:35;24.60;99.90
35633;DHT22;21754;48.216;-1.628;2022-09-03T11:46:10;24.80;99.90
35633;DHT22;21754;48.216;-1.628;2022-09-03T11:48:45;25.00;99.90
35633;DHT22;21754;48.216;-1.628;2022-09-03T11:56:48;25.20;99.90
35633;DHT22;21754;48.216;-1.628;2022-09-03T11:59:23;25.20;99.90
35633;DHT22;21754;48.216;-1.628;2022-09-03T12:02:00;25.10;99.90
35633;DHT22;21754;48.216;-1.628;2022-09-03T12:13:27;25.00;99.90
35633;DHT22;21754;48.216;-1.628;2022-09-03T12:16:05;24.90;99.90
35633;DHT22;21754;48.216;-1.628;2022-09-03T12:18:36;24.80;99.90
35633;DHT22;21754;48.216;-1.628;2022-09-03T12:21:04;24.80;99.90
35633;DHT22;21754;48.216;-1.628;2022-09-03T12:26:27;24.70;99.90
35633;DHT22;21754;48.216;-1.628;2022-09-03T16:33:03;24.70;99.90
35633;DHT22;21754;48.216;-1.628;2022-09-03T16:35:54;26.70;99.90
35633;DHT22;21754;48.216;-1.628;2022-09-03T16:38:56;26.70;99.90
35633;DHT22;21754;48.216;-1.628;2022-09-03T16:42:05;26.80;99.90
35633;DHT22;21754;48.216;-1.628;2022-09-03T16:44:58;26.80;99.90
35633;DHT22;21754;48.216;-1.628;2022-09-03T16:59:06;26.60;99.90
35633;DHT22;21754;48.216;-1.628;2022-09-03T17:07:07;26.40;99.90
35633;DHT22;21754;48.216;-1.628;2022-09-03T17:17:55;26.30;99.90
35633;DHT22;21754;48.216;-1.628;2022-09-03T17:25:51;26.20;99.90
35633;DHT22;21754;48.216;-1.628;2022-09-03T17:31:19;26.10;99.90
35633;DHT22;21754;48.216;-1.628;2022-09-03T17:36:49;26.10;99.90
35633;DHT22;21754;48.216;-1.628;2022-09-03T17:39:49;26.00;99.90
35633;DHT22;21754;48.216;-1.628;2022-09-03T17:42:26;25.90;99.90
35633;DHT22;21754;48.216;-1.628;2022-09-03T17:45:21;25.70;99.90
35633;DHT22;21754;48.216;-1.628;2022-09-03T17:48:17;25.70;99.90
35633;DHT22;21754;48.216;-1.628;2022-09-03T17:50:57;25.70;99.90
35633;DHT22;21754;48.216;-1.628;2022-09-03T17:53:37;25.70;99.90
35633;DHT22;21754;48.216;-1.628;2022-09-03T17:56:07;25.70;99.90
35633;DHT22;21754;48.216;-1.628;2022-09-03T17:58:43;25.60;99.90
35633;DHT22;21754;48.216;-1.628;2022-09-03T18:01:17;25.50;99.90
35633;DHT22;21754;48.216;-1.628;2022-09-03T18:11:56;25.20;99.90
35633;DHT22;21754;48.216;-1.628;2022-09-03T18:14:25;25.10;99.90
35633;DHT22;21754;48.216;-1.628;2022-09-03T18:19:51;25.00;99.90
35633;DHT22;21754;48.216;-1.628;2022-09-03T18:22:57;24.90;99.90
35633;DHT22;21754;48.216;-1.628;2022-09-03T18:25:48;24.70;99.90
35633;DHT22;21754;48.216;-1.628;2022-09-03T18:28:41;24.60;99.90
35633;DHT22;21754;48.216;-1.628;2022-09-03T18:31:28;24.50;99.90
35633;DHT22;21754;48.216;-1.628;2022-09-03T18:34:12;24.50;99.90
35633;DHT22;21754;48.216;-1.628;2022-09-03T18:36:57;24.40;99.90
35633;DHT22;21754;48.216;-1.628;2022-09-03T18:39:44;24.30;99.90
35633;DHT22;21754;48.216;-1.628;2022-09-03T18:42:53;24.20;99.90
35633;DHT22;21754;48.216;-1.628;2022-09-03T18:45:48;24.10;99.90
35633;DHT22;21754;48.216;-1.628;2022-09-03T19:54:37;22.70;99.90
35633;DHT22;21754;48.216;-1.628;2022-09-03T19:57:23;22.40;99.90
35633;DHT22;21754;48.216;-1.628;2022-09-03T20:00:09;22.40;99.90
35633;DHT22;21754;48.216;-1.628;2022-09-03T20:02:54;22.30;99.90
35633;DHT22;21754;48.216;-1.628;2022-09-03T20:05:38;22.30;99.90
35633;DHT22;21754;48.216;-1.628;2022-09-03T20:08:23;22.20;99.90
35633;DHT22;21754;48.216;-1.628;2022-09-03T20:11:16;22.20;99.90
35633;DHT22;21754;48.216;-1.628;2022-09-03T20:13:42;22.10;99.90
35633;DHT22;21754;48.216;-1.628;2022-09-03T20:16:35;22.10;99.90
35633;DHT22;21754;48.216;-1.628;2022-09-03T20:22:17;22.10;99.90
35633;DHT22;21754;48.216;-1.628;2022-09-03T20:24:49;22.10;99.90
35633;DHT22;21754;48.216;-1.628;2022-09-03T20:30:06;21.90;99.90
35633;DHT22;21754;48.216;-1.628;2022-09-03T20:46:31;21.60;99.90
35633;DHT22;21754;48.216;-1.628;2022-09-03T20:49:22;21.60;99.90
35633;DHT22;21754;48.216;-1.628;2022-09-03T20:52:03;21.50;99.90
35633;DHT22;21754;48.216;-1.628;2022-09-03T20:54:36;21.50;99.90
35633;DHT22;21754;48.216;-1.628;2022-09-03T20:57:23;21.50;99.90
35633;DHT22;21754;48.216;-1.628;2022-09-03T21:00:13;21.50;99.90
35633;DHT22;21754;48.216;-1.628;2022-09-03T21:05:44;21.50;99.90
35633;DHT22;21754;48.216;-1.628;2022-09-03T21:13:51;21.30;99.90
35633;DHT22;21754;48.216;-1.628;2022-09-03T21:18:58;21.20;99.90
35633;DHT22;21754;48.216;-1.628;2022-09-03T21:21:48;21.20;99.90
35633;DHT22;21754;48.216;-1.628;2022-09-03T21:24:25;21.20;99.90
35633;DHT22;21754;48.216;-1.628;2022-09-03T21:27:06;20.90;99.90
35633;DHT22;21754;48.216;-1.628;2022-09-03T21:29:40;21.10;99.90
35633;DHT22;21754;48.216;-1.628;2022-09-03T21:32:15;21.10;99.90
35633;DHT22;21754;48.216;-1.628;2022-09-03T21:37:33;21.00;99.90
35633;DHT22;21754;48.216;-1.628;2022-09-03T21:39:59;21.00;99.90
35633;DHT22;21754;48.216;-1.628;2022-09-03T21:47:52;21.00;99.90
35633;DHT22;21754;48.216;-1.628;2022-09-03T21:50:28;21.00;99.90
35633;DHT22;21754;48.216;-1.628;2022-09-03T21:53:08;20.90;99.90
35633;DHT22;21754;48.216;-1.628;2022-09-03T22:00:59;20.90;99.90
35633;DHT22;21754;48.216;-1.628;2022-09-03T22:03:28;20.80;99.90
35633;DHT22;21754;48.216;-1.628;2022-09-03T22:06:05;20.80;99.90
35633;DHT22;21754;48.216;-1.628;2022-09-03T22:11:24;20.80;99.90
35633;DHT22;21754;48.216;-1.628;2022-09-03T22:19:07;20.70;99.90
35633;DHT22;21754;48.216;-1.628;2022-09-03T22:21:58;20.70;99.90
35633;DHT22;21754;48.216;-1.628;2022-09-03T22:27:35;20.60;99.90
35633;DHT22;21754;48.216;-1.628;2022-09-03T22:30:02;20.50;99.90
35633;DHT22;21754;48.216;-1.628;2022-09-03T22:35:25;20.50;99.90
35633;DHT22;21754;48.216;-1.628;2022-09-03T22:52:57;20.30;99.90
35633;DHT22;21754;48.216;-1.628;2022-09-03T22:55:28;20.30;99.90
35633;DHT22;21754;48.216;-1.628;2022-09-03T23:41:25;20.30;99.90
35633;DHT22;21754;48.216;-1.628;2022-09-03T23:46:37;20.20;99.90
35633;DHT22;21754;48.216;-1.628;2022-09-03T23:52:12;20.20;99.90
35633;DHT22;21754;48.216;-1.628;2022-09-03T23:54:47;20.20;99.90
